Time;durP1;ratioP1;P1;durP2;ratioP2;P2;SDS_P1;SDS_P2;PMS_P1;PMS_P2;Temp;Humidity;BMP_temperature;BMP_pressure;BME280_temperature;BME280_humidity;BME280_pressure;Samples;Min_cycle;Max_cycle;Signal;HPM_P1;HPM_P2
2023/04/28 00:01:12;;;;;;;3.35;3.05;;;;;16.20;101239.00;;;;5049519;28;20215;-77
2023/04/28 00:03:41;;;;;;;5.75;3.25;;;;;16.20;101240.00;;;;5049422;28;20207;-78
2023/04/28 00:06:08;;;;;;;4.32;3.08;;;;;16.20;101242.00;;;;5049830;28;20234;-77
2023/04/28 00:08:35;;;;;;;6.13;3.17;;;;;16.30;101230.00;;;;5049942;28;20649;-77
2023/04/28 00:11:03;;;;;;;5.00;3.05;;;;;16.30;101227.00;;;;5049923;28;20580;-77
2023/04/28 00:13:31;;;;;;;5.57;3.25;;;;;16.30;101216.00;;;;5049552;28;20214;-77
2023/04/28 00:15:58;;;;;;;5.70;3.42;;;;;16.30;101211.00;;;;5062727;28;20206;-78
2023/04/28 00:18:26;;;;;;;4.70;2.53;;;;;16.30;101201.00;;;;5070005;28;20198;-77
2023/04/28 00:20:54;;;;;;;4.53;3.03;;;;;16.20;101200.00;;;;5069343;28;20561;-78
2023/04/28 00:23:22;;;;;;;7.00;3.20;;;;;16.20;101197.00;;;;5069683;28;20244;-77
2023/04/28 00:25:51;;;;;;;3.42;2.80;;;;;16.20;101194.00;;;;5069264;28;20258;-77
2023/04/28 00:28:19;;;;;;;3.80;2.80;;;;;16.20;101191.00;;;;5069451;28;20244;-77
2023/04/28 00:30:46;;;;;;;5.28;3.47;;;;;16.20;101172.00;;;;5068929;28;20663;-77
2023/04/28 00:33:14;;;;;;;5.57;3.13;;;;;16.20;101176.00;;;;5068773;28;20238;-77
2023/04/28 00:35:41;;;;;;;4.07;3.10;;;;;16.20;101176.00;;;;5069348;28;20207;-77
2023/04/28 00:38:10;;;;;;;3.72;2.97;;;;;16.20;101171.00;;;;5068521;28;20202;-77
2023/04/28 00:40:38;;;;;;;5.38;3.38;;;;;16.20;101162.00;;;;5068890;28;20210;-77
2023/04/28 00:43:06;;;;;;;5.82;3.70;;;;;16.20;101171.00;;;;5069013;28;20206;-77
2023/04/28 00:45:34;;;;;;;3.13;2.75;;;;;16.20;101179.00;;;;5069226;28;20246;-77
2023/04/28 00:48:03;;;;;;;3.65;3.00;;;;;16.20;101171.00;;;;5068796;28;20585;-77
2023/04/28 00:50:30;;;;;;;3.38;2.50;;;;;16.20;101172.00;;;;5068036;28;20293;-77
2023/04/28 00:52:58;;;;;;;4.40;3.55;;;;;16.20;101164.00;;;;5068362;28;20207;-77
2023/04/28 00:55:27;;;;;;;4.60;2.60;;;;;16.10;101160.00;;;;5069097;28;20191;-77
2023/04/28 00:57:57;;;;;;;3.35;2.53;;;;;16.10;101163.00;;;;5068477;28;20565;-77
2023/04/28 01:00:24;;;;;;;4.07;3.05;;;;;16.20;101159.00;;;;5068284;28;20206;-77
2023/04/28 01:02:53;;;;;;;5.53;3.38;;;;;16.20;101150.00;;;;5067590;28;20212;-77
2023/04/28 01:05:21;;;;;;;3.83;3.05;;;;;16.20;101143.00;;;;5063554;28;20235;-77
2023/04/28 01:07:48;;;;;;;3.85;2.72;;;;;16.10;101140.00;;;;5067926;28;20203;-77
2023/04/28 01:10:15;;;;;;;4.10;3.13;;;;;16.10;101133.00;;;;5068546;28;20614;-77
2023/04/28 01:12:44;;;;;;;5.57;3.45;;;;;16.10;101139.00;;;;5067433;28;20204;-78
2023/04/28 01:15:17;;;;;;;6.60;3.75;;;;;16.00;101136.00;;;;5067768;28;20289;-77
2023/04/28 01:17:45;;;;;;;3.55;2.97;;;;;16.10;101140.00;;;;5067786;28;20203;-76
2023/04/28 01:20:13;;;;;;;4.40;3.05;;;;;16.10;101143.00;;;;5067750;28;20572;-77
2023/04/28 01:22:40;;;;;;;6.00;3.70;;;;;16.10;101140.00;;;;5066806;28;20199;-77
2023/04/28 01:25:09;;;;;;;7.25;3.28;;;;;16.10;101137.00;;;;5067231;28;20218;-77
2023/04/28 01:27:36;;;;;;;4.25;3.20;;;;;16.10;101146.00;;;;5067409;28;20214;-77
2023/04/28 01:30:04;;;;;;;3.65;2.80;;;;;16.10;101133.00;;;;5067687;28;20245;-77
2023/04/28 01:32:31;;;;;;;3.83;2.65;;;;;16.10;101130.00;;;;5067734;28;20594;-77
2023/04/28 01:34:59;;;;;;;5.32;2.83;;;;;16.10;101127.00;;;;5067906;28;20195;-77
2023/04/28 01:37:26;;;;;;;4.05;2.83;;;;;16.10;101118.00;;;;5067890;28;20202;-77
2023/04/28 01:39:53;;;;;;;4.07;3.40;;;;;16.10;101116.00;;;;5065647;28;20418;-77
2023/04/28 01:42:22;;;;;;;3.80;2.55;;;;;16.10;101113.00;;;;5068046;28;20209;-77
2023/04/28 01:44:49;;;;;;;4.60;3.05;;;;;16.10;101105.00;;;;5068007;28;20202;-77
2023/04/28 01:47:16;;;;;;;7.05;3.38;;;;;16.10;101095.00;;;;5066539;28;20230;-77
2023/04/28 01:49:43;;;;;;;3.90;2.63;;;;;16.10;101092.00;;;;5068017;28;20199;-77
2023/04/28 01:52:11;;;;;;;3.35;2.60;;;;;16.10;101089.00;;;;5067554;28;20794;-77
2023/04/28 01:54:38;;;;;;;4.38;2.78;;;;;16.10;101090.00;;;;5067792;28;20198;-77
2023/04/28 01:57:05;;;;;;;8.52;2.97;;;;;16.10;101090.00;;;;5067022;28;20214;-77
2023/04/28 01:59:34;;;;;;;6.28;3.25;;;;;16.00;101085.00;;;;5067843;28;20206;-78
2023/04/28 02:02:01;;;;;;;4.95;2.75;;;;;16.10;101092.00;;;;5067782;28;20194;-77
2023/04/28 02:04:28;;;;;;;2.83;2.17;;;;;16.00;101092.00;;;;5068422;28;20202;-77
2023/04/28 02:06:55;;;;;;;3.33;2.17;;;;;16.00;101090.00;;;;5050137;28;20234;-77
2023/04/28 02:09:23;;;;;;;4.43;2.60;;;;;16.00;101081.00;;;;5048498;28;20645;-77
2023/04/28 02:11:50;;;;;;;3.70;2.53;;;;;16.00;101077.00;;;;5048016;28;20199;-77
2023/04/28 02:14:17;;;;;;;3.22;2.55;;;;;16.00;101079.00;;;;5055284;28;20680;-77
2023/04/28 02:16:46;;;;;;;4.15;2.72;;;;;16.00;101071.00;;;;5068065;28;20201;-77
2023/04/28 02:19:14;;;;;;;3.80;2.60;;;;;16.00;101066.00;;;;5068198;28;20198;-77
2023/04/28 02:21:42;;;;;;;3.20;2.88;;;;;16.00;101060.00;;;;5067333;28;20563;-77
2023/04/28 02:24:09;;;;;;;3.35;2.45;;;;;16.00;101057.00;;;;5067880;28;20256;-77
2023/04/28 02:26:37;;;;;;;3.75;2.58;;;;;16.00;101049.00;;;;5067781;28;20223;-77
2023/04/28 02:29:04;;;;;;;3.83;2.83;;;;;16.00;101057.00;;;;5067504;28;20195;-77
2023/04/28 02:31:31;;;;;;;3.17;2.50;;;;;16.00;101055.00;;;;5067020;28;20199;-77
2023/04/28 02:34:00;;;;;;;4.90;2.85;;;;;16.00;101055.00;;;;5070327;28;20257;-77
2023/04/28 02:36:27;;;;;;;5.63;2.50;;;;;16.00;101045.00;;;;5071170;28;20199;-76
2023/04/28 02:38:55;;;;;;;3.40;2.60;;;;;16.00;101032.00;;;;5070495;28;20201;-77
2023/04/28 02:41:22;;;;;;;5.35;2.47;;;;;16.00;101032.00;;;;5071795;28;20191;-77
2023/04/28 02:43:49;;;;;;;3.97;2.55;;;;;16.00;101036.00;;;;5071851;28;20214;-77
2023/04/28 02:46:16;;;;;;;4.55;3.25;;;;;16.00;101028.00;;;;5070935;28;20229;-77
2023/04/28 02:48:44;;;;;;;3.47;2.53;;;;;16.00;101018.00;;;;5070715;28;20222;-77
2023/04/28 02:51:13;;;;;;;4.75;2.63;;;;;16.00;101014.00;;;;5071000;28;20199;-77
2023/04/28 02:53:40;;;;;;;4.88;3.17;;;;;16.00;101006.00;;;;5070808;28;20199;-77
2023/04/28 02:56:07;;;;;;;3.70;2.60;;;;;16.00;101007.00;;;;5071254;28;20618;-76
2023/04/28 02:58:35;;;;;;;5.60;2.47;;;;;16.00;101004.00;;;;5071128;28;20198;-76
2023/04/28 03:01:02;;;;;;;2.80;2.25;;;;;16.00;101004.00;;;;5071269;28;20191;-76
2023/04/28 03:03:29;;;;;;;3.72;2.80;;;;;16.00;101005.00;;;;5070465;28;20198;-76
2023/04/28 03:05:56;;;;;;;3.55;2.67;;;;;15.90;101003.00;;;;5057155;28;20227;-76
2023/04/28 03:08:25;;;;;;;3.17;2.28;;;;;15.90;100999.00;;;;5051141;28;20212;-75
2023/04/28 03:10:52;;;;;;;3.63;2.83;;;;;15.90;100988.00;;;;5051168;28;20200;-76
2023/04/28 03:13:20;;;;;;;8.90;2.70;;;;;15.90;100987.00;;;;5050312;28;20207;-76
2023/04/28 03:15:47;;;;;;;3.42;2.25;;;;;15.90;100982.00;;;;5051357;28;20204;-76
2023/04/28 03:18:16;;;;;;;4.05;2.67;;;;;15.80;100988.00;;;;5050521;28;20207;-76
2023/04/28 03:20:43;;;;;;;4.53;2.30;;;;;15.80;100984.00;;;;5051040;28;20266;-76
2023/04/28 03:23:10;;;;;;;4.00;2.92;;;;;15.80;100984.00;;;;5065486;28;20619;-76
2023/04/28 03:25:39;;;;;;;4.07;2.80;;;;;15.80;100988.00;;;;5070663;28;20596;-75
2023/04/28 03:28:06;;;;;;;3.70;2.70;;;;;15.80;100991.00;;;;5069872;28;20301;-76
2023/04/28 03:30:34;;;;;;;3.42;2.58;;;;;15.80;100988.00;;;;5071043;28;20187;-76
2023/04/28 03:33:01;;;;;;;6.47;2.92;;;;;15.80;100985.00;;;;5069801;28;20763;-76
2023/04/28 03:35:28;;;;;;;3.25;2.78;;;;;15.80;100985.00;;;;5070069;28;20210;-76
2023/04/28 03:37:55;;;;;;;4.15;2.55;;;;;15.80;100986.00;;;;5069484;28;20207;-75
2023/04/28 03:40:23;;;;;;;3.60;2.58;;;;;15.80;100977.00;;;;5069764;28;20587;-76
2023/04/28 03:42:51;;;;;;;7.45;3.10;;;;;15.80;100977.00;;;;5069570;28;20195;-76
2023/04/28 03:45:18;;;;;;;3.88;2.13;;;;;15.80;100974.00;;;;5070586;28;20199;-75
2023/04/28 03:47:46;;;;;;;2.90;2.35;;;;;15.80;100972.00;;;;5070120;28;20233;-76
2023/04/28 03:50:13;;;;;;;4.20;2.55;;;;;15.80;100974.00;;;;5070287;28;20203;-76
2023/04/28 03:52:40;;;;;;;3.70;2.58;;;;;15.80;100973.00;;;;5069580;28;20674;-76
2023/04/28 03:55:08;;;;;;;4.28;3.20;;;;;15.80;100971.00;;;;5069529;28;20577;-76
2023/04/28 03:57:35;;;;;;;3.50;2.65;;;;;15.90;100966.00;;;;5069217;28;20199;-76
2023/04/28 04:00:05;;;;;;;5.55;2.83;;;;;15.90;100957.00;;;;5069987;28;20202;-76
2023/04/28 04:02:32;;;;;;;5.28;2.67;;;;;15.90;100956.00;;;;5070089;28;20210;-76
2023/04/28 04:05:00;;;;;;;3.42;2.55;;;;;15.90;100951.00;;;;5069611;28;20207;-76
2023/04/28 04:07:27;;;;;;;2.95;2.30;;;;;15.90;100941.00;;;;5048571;28;20239;-76
2023/04/28 04:09:54;;;;;;;3.47;2.78;;;;;15.90;100943.00;;;;5049244;28;20207;-76
2023/04/28 04:12:22;;;;;;;3.60;2.67;;;;;15.90;100933.00;;;;5050100;28;20192;-76
2023/04/28 04:14:49;;;;;;;4.47;2.75;;;;;15.90;100936.00;;;;5069743;28;20661;-76
2023/04/28 04:17:17;;;;;;;3.75;3.15;;;;;15.90;100934.00;;;;5069673;28;20743;-76
2023/04/28 04:19:45;;;;;;;2.80;2.50;;;;;15.90;100930.00;;;;5068852;28;20573;-76
2023/04/28 04:22:12;;;;;;;4.15;2.75;;;;;15.90;100936.00;;;;5069582;28;20683;-75
2023/04/28 04:24:39;;;;;;;3.78;2.70;;;;;15.90;100930.00;;;;5069314;28;20199;-76
2023/04/28 04:27:06;;;;;;;4.07;2.80;;;;;15.90;100929.00;;;;5068778;28;20703;-76
2023/04/28 04:29:34;;;;;;;4.65;2.58;;;;;16.00;100922.00;;;;5068550;28;20235;-76
2023/04/28 04:32:01;;;;;;;5.13;3.30;;;;;15.90;100925.00;;;;5067903;28;20558;-76
2023/04/28 04:34:30;;;;;;;4.97;3.05;;;;;16.00;100925.00;;;;5069437;28;20590;-76
2023/04/28 04:36:57;;;;;;;3.85;2.80;;;;;16.00;100936.00;;;;5064769;28;20207;-76
2023/04/28 04:39:24;;;;;;;6.82;2.95;;;;;16.00;100930.00;;;;5049449;28;20703;-76
2023/04/28 04:41:52;;;;;;;5.80;3.28;;;;;16.00;100924.00;;;;5049655;28;20669;-76
2023/04/28 04:44:19;;;;;;;4.05;3.10;;;;;16.00;100918.00;;;;5049099;28;20650;-76
2023/04/28 04:46:47;;;;;;;4.68;2.92;;;;;16.00;100924.00;;;;5049623;28;20242;-76
2023/04/28 04:49:14;;;;;;;6.18;3.05;;;;;16.00;100917.00;;;;5053833;28;20653;-76
2023/04/28 04:51:43;;;;;;;4.38;3.25;;;;;16.00;100899.00;;;;5068694;28;20198;-77
2023/04/28 04:54:10;;;;;;;5.20;3.50;;;;;16.10;100893.00;;;;5068301;28;20213;-76
2023/04/28 04:56:37;;;;;;;5.00;3.40;;;;;16.10;100894.00;;;;5068308;28;20199;-76
2023/04/28 04:59:05;;;;;;;3.95;3.03;;;;;16.10;100891.00;;;;5068494;28;20207;-77
2023/04/28 05:01:32;;;;;;;5.43;3.08;;;;;16.10;100897.00;;;;5069507;28;20293;-77
2023/04/28 05:03:59;;;;;;;5.65;3.25;;;;;16.10;100901.00;;;;5067139;28;20215;-76
2023/04/28 05:06:27;;;;;;;4.90;3.53;;;;;16.10;100901.00;;;;5057516;28;20701;-77
2023/04/28 05:08:57;;;;;;;5.30;3.33;;;;;16.10;100893.00;;;;5047793;28;20658;-76
2023/04/28 05:11:24;;;;;;;5.15;3.15;;;;;16.10;100888.00;;;;5048426;28;20227;-76
2023/04/28 05:13:52;;;;;;;6.57;3.50;;;;;16.10;100894.00;;;;5047742;28;20214;-76
2023/04/28 05:16:19;;;;;;;5.60;3.47;;;;;16.20;100893.00;;;;5047915;28;20681;-75
2023/04/28 05:18:46;;;;;;;10.93;3.88;;;;;16.20;100880.00;;;;5047999;28;20592;-76
2023/04/28 05:21:13;;;;;;;6.00;4.28;;;;;16.20;100878.00;;;;5055160;28;20199;-75
2023/04/28 05:23:41;;;;;;;5.97;4.30;;;;;16.20;100888.00;;;;5068002;28;20680;-75
2023/04/28 05:26:09;;;;;;;5.10;3.67;;;;;16.20;100902.00;;;;5068248;28;20218;-76
2023/04/28 05:28:36;;;;;;;7.07;4.53;;;;;16.20;100901.00;;;;5067596;28;20731;-76
2023/04/28 05:31:04;;;;;;;6.20;4.22;;;;;16.20;100902.00;;;;5068740;28;20199;-75
2023/04/28 05:33:31;;;;;;;7.78;4.38;;;;;16.20;100907.00;;;;5068903;28;20239;-75
2023/04/28 05:35:59;;;;;;;7.07;4.45;;;;;16.20;100902.00;;;;5068259;28;20198;-75
2023/04/28 05:38:26;;;;;;;9.27;4.70;;;;;16.30;100895.00;;;;5067612;28;20229;-75
2023/04/28 05:40:54;;;;;;;7.28;4.63;;;;;16.30;100884.00;;;;5067716;28;20194;-76
2023/04/28 05:43:22;;;;;;;7.57;4.68;;;;;16.20;100896.00;;;;5068473;28;20195;-76
2023/04/28 05:45:50;;;;;;;5.70;4.50;;;;;16.30;100896.00;;;;5067135;28;20578;-76
2023/04/28 05:48:17;;;;;;;6.38;4.72;;;;;16.30;100893.00;;;;5068250;28;20642;-75
2023/04/28 05:50:44;;;;;;;6.05;4.82;;;;;16.30;100890.00;;;;5067714;28;20710;-76
2023/04/28 05:53:11;;;;;;;9.32;4.47;;;;;16.30;100894.00;;;;5067690;28;20203;-76
2023/04/28 05:55:39;;;;;;;7.45;4.68;;;;;16.20;100897.00;;;;5067662;28;20218;-76
2023/04/28 05:58:06;;;;;;;7.85;4.68;;;;;16.20;100907.00;;;;5067729;28;20234;-76
2023/04/28 06:00:35;;;;;;;7.65;4.55;;;;;16.20;100915.00;;;;5068563;28;20252;-76
2023/04/28 06:03:02;;;;;;;6.30;4.78;;;;;16.30;100905.00;;;;5067825;28;20202;-76
2023/04/28 06:05:30;;;;;;;7.20;4.85;;;;;16.30;100908.00;;;;5065597;28;20570;-76
2023/04/28 06:07:57;;;;;;;5.88;4.75;;;;;16.30;100899.00;;;;5051627;28;20689;-76
2023/04/28 06:10:26;;;;;;;6.95;4.95;;;;;16.30;100899.00;;;;5052275;28;20191;-76
2023/04/28 06:12:53;;;;;;;6.63;4.80;;;;;16.30;100897.00;;;;5064350;28;20199;-76
2023/04/28 06:15:21;;;;;;;7.93;5.00;;;;;16.30;100890.00;;;;5071679;28;20617;-76
2023/04/28 06:17:50;;;;;;;6.78;4.53;;;;;16.30;100881.00;;;;5072013;28;20203;-76
2023/04/28 06:20:17;;;;;;;9.35;5.10;;;;;16.40;100872.00;;;;5072014;28;20207;-76
2023/04/28 06:22:45;;;;;;;6.57;5.22;;;;;16.40;100879.00;;;;5071923;28;20191;-76
2023/04/28 06:25:12;;;;;;;6.38;5.05;;;;;16.50;100885.00;;;;5071733;28;20207;-76
2023/04/28 06:27:40;;;;;;;6.57;4.95;;;;;16.50;100879.00;;;;5071120;28;20226;-76
2023/04/28 06:30:08;;;;;;;7.60;4.97;;;;;16.50;100873.00;;;;5070897;28;20249;-75
2023/04/28 06:32:36;;;;;;;6.13;4.90;;;;;16.50;100878.00;;;;5071643;28;20241;-75
2023/04/28 06:35:05;;;;;;;8.27;5.38;;;;;16.50;100880.00;;;;5071622;28;20199;-75
2023/04/28 06:37:33;;;;;;;8.52;5.50;;;;;16.50;100888.00;;;;5072308;28;20199;-76
2023/04/28 06:40:00;;;;;;;7.10;5.47;;;;;16.60;100881.00;;;;5070084;28;20214;-76
2023/04/28 06:42:28;;;;;;;8.25;5.43;;;;;16.60;100882.00;;;;5071729;28;20206;-75
2023/04/28 06:44:55;;;;;;;9.82;5.53;;;;;16.70;100880.00;;;;5071317;28;20206;-75
2023/04/28 06:47:22;;;;;;;7.80;5.90;;;;;16.70;100875.00;;;;5070623;28;20242;-76
2023/04/28 06:49:50;;;;;;;6.72;5.47;;;;;16.70;100868.00;;;;5071336;28;20206;-77
2023/04/28 06:52:20;;;;;;;6.93;5.25;;;;;16.70;100860.00;;;;5071144;28;20242;-75
2023/04/28 06:54:47;;;;;;;7.85;5.60;;;;;16.80;100864.00;;;;5070920;28;20207;-77
2023/04/28 06:57:15;;;;;;;7.13;6.00;;;;;16.80;100860.00;;;;5070757;28;20207;-76
2023/04/28 06:59:43;;;;;;;7.00;5.55;;;;;16.80;100855.00;;;;5071712;28;20289;-77
2023/04/28 07:02:10;;;;;;;8.70;6.05;;;;;16.90;100849.00;;;;5069734;28;20655;-76
2023/04/28 07:04:37;;;;;;;7.53;5.32;;;;;16.90;100849.00;;;;5070123;28;20207;-77
2023/04/28 07:07:07;;;;;;;8.40;5.63;;;;;17.00;100854.00;;;;5056413;28;20227;-77
2023/04/28 07:09:35;;;;;;;7.75;5.95;;;;;17.00;100847.00;;;;5050834;28;20215;-76
2023/04/28 07:12:03;;;;;;;7.15;5.43;;;;;17.10;100846.00;;;;5050713;28;20210;-76
2023/04/28 07:14:30;;;;;;;6.60;5.63;;;;;17.10;100845.00;;;;5051293;28;20203;-76
2023/04/28 07:16:58;;;;;;;7.80;6.07;;;;;17.20;100845.00;;;;5050632;28;20204;-76
2023/04/28 07:19:25;;;;;;;8.68;5.97;;;;;17.20;100845.00;;;;5051472;28;20279;-76
2023/04/28 07:21:52;;;;;;;7.47;5.65;;;;;17.20;100845.00;;;;5070095;28;20199;-76
2023/04/28 07:24:22;;;;;;;7.70;5.93;;;;;17.30;100854.00;;;;5070964;28;20202;-76
2023/04/28 07:26:51;;;;;;;7.63;5.97;;;;;17.30;100854.00;;;;5070174;28;20215;-76
2023/04/28 07:29:18;;;;;;;9.75;6.35;;;;;17.40;100853.00;;;;5065960;28;20199;-76
2023/04/28 07:31:45;;;;;;;8.18;5.75;;;;;17.40;100850.00;;;;5070491;28;20202;-76
2023/04/28 07:34:12;;;;;;;10.63;8.10;;;;;17.50;100851.00;;;;5070264;28;20227;-76
2023/04/28 07:36:40;;;;;;;8.85;6.45;;;;;17.60;100848.00;;;;5067373;28;20563;-76
2023/04/28 07:39:07;;;;;;;8.50;6.65;;;;;17.70;100852.00;;;;5049800;28;20661;-76
2023/04/28 07:41:37;;;;;;;7.15;5.85;;;;;17.80;100849.00;;;;5050392;28;20226;-76
2023/04/28 07:44:07;;;;;;;8.98;6.70;;;;;17.90;100858.00;;;;5050259;28;20549;-76
2023/04/28 07:46:34;;;;;;;10.15;7.53;;;;;18.00;100851.00;;;;5050635;28;20207;-76
2023/04/28 07:49:03;;;;;;;10.07;7.18;;;;;18.10;100854.00;;;;5050326;28;20246;-76
2023/04/28 07:51:31;;;;;;;9.40;6.68;;;;;18.20;100857.00;;;;5053027;28;20228;-76
2023/04/28 07:53:58;;;;;;;8.85;6.35;;;;;18.30;100851.00;;;;5069037;28;20665;-76
2023/04/28 07:56:26;;;;;;;6.75;6.05;;;;;18.30;100853.00;;;;5070276;28;20203;-76
2023/04/28 07:58:53;;;;;;;8.55;6.45;;;;;18.40;100846.00;;;;5069988;28;20218;-75
2023/04/28 08:01:22;;;;;;;7.30;6.05;;;;;18.40;100844.00;;;;5069008;28;20199;-76
2023/04/28 08:03:49;;;;;;;8.23;6.63;;;;;18.50;100852.00;;;;5070346;28;20237;-75
2023/04/28 08:06:17;;;;;;;7.18;6.00;;;;;18.60;100849.00;;;;5069609;28;20208;-75
2023/04/28 08:08:46;;;;;;;7.22;6.22;;;;;18.60;100852.00;;;;5069534;28;20643;-75
2023/04/28 08:11:13;;;;;;;11.40;7.18;;;;;18.60;100851.00;;;;5068694;28;20215;-75
2023/04/28 08:13:40;;;;;;;7.93;6.43;;;;;18.70;100857.00;;;;5069220;28;20203;-75
2023/04/28 08:16:07;;;;;;;7.18;6.43;;;;;18.70;100854.00;;;;5069602;28;20191;-76
2023/04/28 08:18:36;;;;;;;7.95;7.00;;;;;18.70;100861.00;;;;5070186;28;20202;-76
2023/04/28 08:21:04;;;;;;;8.80;6.57;;;;;18.70;100862.00;;;;5069369;28;20194;-76
2023/04/28 08:23:31;;;;;;;7.38;6.30;;;;;18.70;100862.00;;;;5069061;28;20214;-75
2023/04/28 08:25:58;;;;;;;6.93;6.13;;;;;18.80;100862.00;;;;5069413;28;20219;-75
2023/04/28 08:28:26;;;;;;;8.32;6.45;;;;;18.80;100857.00;;;;5068949;28;20723;-76
2023/04/28 08:30:54;;;;;;;10.18;7.50;;;;;18.90;100855.00;;;;5069578;28;20739;-76
2023/04/28 08:33:22;;;;;;;11.18;7.32;;;;;18.90;100854.00;;;;5068718;28;20559;-76
2023/04/28 08:35:51;;;;;;;8.20;7.03;;;;;18.90;100852.00;;;;5070126;28;20690;-76
2023/04/28 08:38:19;;;;;;;8.18;7.30;;;;;19.00;100849.00;;;;5069546;28;20199;-76
2023/04/28 08:40:46;;;;;;;8.93;7.35;;;;;19.00;100844.00;;;;5069272;28;20697;-76
2023/04/28 08:43:13;;;;;;;7.45;6.18;;;;;19.10;100849.00;;;;5068613;28;20224;-75
2023/04/28 08:45:44;;;;;;;12.00;6.60;;;;;19.20;100843.00;;;;5067822;28;20206;-76
2023/04/28 08:48:18;;;;;;;7.57;6.70;;;;;19.20;100843.00;;;;5069170;28;20314;-76
2023/04/28 08:50:52;;;;;;;9.73;7.03;;;;;19.20;100844.00;;;;5068911;28;20198;-76
2023/04/28 08:53:25;;;;;;;7.82;6.72;;;;;19.30;100844.00;;;;5069600;28;20229;-76
2023/04/28 08:55:55;;;;;;;8.82;6.75;;;;;19.30;100834.00;;;;5068254;28;20191;-76
2023/04/28 08:58:23;;;;;;;9.65;7.13;;;;;19.30;100836.00;;;;5069118;28;20202;-76
2023/04/28 09:00:51;;;;;;;7.70;5.97;;;;;19.30;100845.00;;;;5068444;28;20206;-76
2023/04/28 09:03:18;;;;;;;9.00;6.95;;;;;19.30;100850.00;;;;5068259;28;20679;-76
2023/04/28 09:05:46;;;;;;;8.65;5.88;;;;;19.30;100846.00;;;;5066205;28;20222;-76
2023/04/28 09:08:15;;;;;;;9.63;7.70;;;;;19.30;100846.00;;;;5047714;28;20251;-76
2023/04/28 09:10:42;;;;;;;7.35;6.60;;;;;19.30;100852.00;;;;5048667;28;20211;-76
2023/04/28 09:13:09;;;;;;;10.25;7.35;;;;;19.30;100839.00;;;;5048576;28;20208;-76
2023/04/28 09:15:40;;;;;;;7.43;6.40;;;;;19.30;100838.00;;;;5048538;28;20674;-76
2023/04/28 09:18:08;;;;;;;7.93;6.85;;;;;19.40;100836.00;;;;5048479;28;20276;-76
2023/04/28 09:20:36;;;;;;;9.35;6.90;;;;;19.40;100839.00;;;;5067320;28;20657;-76
2023/04/28 09:23:19;;;;;;;8.65;6.53;;;;;19.30;100836.00;;;;5068103;28;20202;-76
2023/04/28 09:25:58;;;;;;;6.85;6.03;;;;;19.30;100835.00;;;;5068625;28;20218;-76
2023/04/28 09:28:26;;;;;;;8.20;6.60;;;;;19.40;100834.00;;;;5068644;28;20233;-76
2023/04/28 09:30:53;;;;;;;7.18;5.53;;;;;19.40;100839.00;;;;5067472;28;20202;-76
2023/04/28 09:33:21;;;;;;;6.40;5.43;;;;;19.40;100837.00;;;;5068111;28;20258;-76
2023/04/28 09:35:48;;;;;;;8.23;6.03;;;;;19.40;100837.00;;;;5066226;28;20252;-76
2023/04/28 09:38:18;;;;;;;6.38;5.72;;;;;19.40;100831.00;;;;5067678;28;20221;-76
2023/04/28 09:40:59;;;;;;;5.45;4.55;;;;;19.30;100832.00;;;;5067521;28;20195;-76
2023/04/28 09:43:31;;;;;;;5.45;4.90;;;;;19.40;100837.00;;;;5067833;28;20203;-76
2023/04/28 09:45:59;;;;;;;4.60;4.20;;;;;19.50;100828.00;;;;5067118;28;20199;-76
2023/04/28 09:48:34;;;;;;;5.82;4.63;;;;;19.40;100831.00;;;;5068150;28;20232;-76
2023/04/28 09:51:03;;;;;;;6.18;4.57;;;;;19.50;100829.00;;;;5067415;28;20205;-76
2023/04/28 09:53:32;;;;;;;5.65;4.55;;;;;19.50;100823.00;;;;5066892;28;20587;-76
2023/04/28 09:56:02;;;;;;;4.32;3.92;;;;;19.60;100827.00;;;;5067375;28;20290;-76
2023/04/28 09:58:31;;;;;;;5.05;4.30;;;;;19.60;100830.00;;;;5067113;28;20215;-76
2023/04/28 10:00:59;;;;;;;5.68;4.93;;;;;19.60;100835.00;;;;5067443;28;20229;-76
2023/04/28 10:03:28;;;;;;;5.40;4.55;;;;;19.60;100824.00;;;;5067801;28;20222;-76
2023/04/28 10:05:57;;;;;;;6.18;4.60;;;;;19.70;100823.00;;;;5064487;28;20207;-76
2023/04/28 10:08:26;;;;;;;5.55;5.05;;;;;19.70;100823.00;;;;5047295;28;20227;-76
2023/04/28 10:10:56;;;;;;;5.05;4.57;;;;;19.70;100825.00;;;;5059900;28;20680;-77
2023/04/28 10:13:24;;;;;;;5.03;4.50;;;;;19.70;100824.00;;;;5067912;28;20217;-76
2023/04/28 10:15:54;;;;;;;5.18;4.63;;;;;19.80;100822.00;;;;5067107;28;20203;-76
2023/04/28 10:18:23;;;;;;;5.25;4.65;;;;;19.80;100827.00;;;;5067736;28;20194;-76
2023/04/28 10:20:57;;;;;;;5.63;4.97;;;;;19.80;100831.00;;;;5066984;28;20210;-76
2023/04/28 10:23:46;;;;;;;4.88;4.35;;;;;19.70;100831.00;;;;5067484;28;20203;-76
2023/04/28 10:26:18;;;;;;;7.13;4.78;;;;;19.80;100827.00;;;;5066368;28;20214;-76
2023/04/28 10:28:47;;;;;;;4.50;4.07;;;;;19.80;100831.00;;;;5047360;28;20281;-76
2023/04/28 10:31:16;;;;;;;5.47;4.95;;;;;19.80;100835.00;;;;5046690;28;20624;-76
2023/04/28 10:33:44;;;;;;;6.22;4.40;;;;;19.90;100832.00;;;;5046593;28;20263;-76
2023/04/28 10:36:11;;;;;;;7.07;5.13;;;;;19.90;100837.00;;;;5047297;28;20927;-76
2023/04/28 10:39:09;;;;;;;5.63;5.03;;;;;19.80;100832.00;;;;5067163;28;20270;-76
2023/04/28 10:41:38;;;;;;;5.60;4.95;;;;;19.90;100834.00;;;;5066784;28;20214;-76
2023/04/28 10:44:39;;;;;;;6.20;5.20;;;;;19.80;100835.00;;;;5059884;28;20227;-77
2023/04/28 10:47:08;;;;;;;5.60;4.85;;;;;19.90;100828.00;;;;5046197;28;20653;-77
2023/04/28 10:50:05;;;;;;;6.32;5.45;;;;;19.80;100828.00;;;;5046824;28;20417;-75
2023/04/28 10:52:51;;;;;;;6.28;5.60;;;;;19.80;100837.00;;;;5046689;28;20227;-76
2023/04/28 10:55:31;;;;;;;6.82;5.97;;;;;19.80;100828.00;;;;5065077;28;20203;-76
2023/04/28 10:58:36;;;;;;;7.20;6.22;;;;;19.80;100834.00;;;;5069901;28;20668;-77
2023/04/28 11:01:26;;;;;;;10.15;6.88;;;;;19.80;100830.00;;;;5069337;28;20329;-77
2023/04/28 11:03:58;;;;;;;7.57;6.60;;;;;19.90;100838.00;;;;5069791;28;20692;-77
2023/04/28 11:06:27;;;;;;;7.45;6.47;;;;;19.90;100835.00;;;;5064753;28;20239;-76
2023/04/28 11:08:56;;;;;;;7.50;6.63;;;;;19.90;100832.00;;;;5049901;28;20223;-77
2023/04/28 11:11:25;;;;;;;7.25;6.55;;;;;19.90;100834.00;;;;5050755;28;20226;-77
2023/04/28 11:13:55;;;;;;;6.68;5.85;;;;;19.90;100834.00;;;;5050652;28;20215;-77
2023/04/28 11:16:25;;;;;;;8.93;6.25;;;;;19.90;100837.00;;;;5050140;28;20657;-76
2023/04/28 11:19:04;;;;;;;5.63;5.00;;;;;19.80;100825.00;;;;5062786;28;20649;-76
2023/04/28 11:21:32;;;;;;;5.10;4.15;;;;;19.90;100823.00;;;;5069885;28;20198;-77
2023/04/28 11:24:00;;;;;;;4.85;4.43;;;;;20.00;100827.00;;;;5070517;28;20300;-76
2023/04/28 11:26:28;;;;;;;5.13;4.07;;;;;20.10;100826.00;;;;5069366;28;20215;-76
2023/04/28 11:28:58;;;;;;;4.72;3.15;;;;;20.20;100820.00;;;;5069885;28;20235;-77
2023/04/28 11:31:27;;;;;;;3.85;3.00;;;;;20.30;100817.00;;;;5070213;28;20214;-77
2023/04/28 11:33:57;;;;;;;5.32;3.47;;;;;20.30;100812.00;;;;5069414;28;20312;-77
2023/04/28 11:36:27;;;;;;;3.40;2.83;;;;;20.40;100815.00;;;;5069084;28;20199;-77
2023/04/28 11:38:56;;;;;;;3.83;3.15;;;;;20.50;100820.00;;;;5068595;28;20206;-76
2023/04/28 11:41:23;;;;;;;4.28;3.08;;;;;20.60;100814.00;;;;5070417;28;20269;-77
2023/04/28 11:43:51;;;;;;;4.57;3.55;;;;;20.70;100810.00;;;;5070206;28;20202;-77
2023/04/28 11:46:21;;;;;;;5.07;3.65;;;;;20.70;100821.00;;;;5069958;28;20256;-76
2023/04/28 11:48:50;;;;;;;6.13;3.33;;;;;20.80;100813.00;;;;5070244;28;20226;-77
2023/04/28 11:51:37;;;;;;;4.68;3.65;;;;;20.70;100817.00;;;;5069028;28;20199;-77
2023/04/28 11:54:06;;;;;;;4.25;3.72;;;;;20.80;100822.00;;;;5049288;28;20286;-77
2023/04/28 11:56:38;;;;;;;5.20;3.63;;;;;20.70;100817.00;;;;5050066;28;20258;-77
2023/04/28 11:59:08;;;;;;;4.57;3.13;;;;;20.80;100821.00;;;;5048972;28;20208;-77
2023/04/28 12:01:46;;;;;;;3.83;2.88;;;;;20.70;100812.00;;;;5050283;28;20200;-76
2023/04/28 12:04:14;;;;;;;3.63;2.63;;;;;20.90;100819.00;;;;5048320;28;20207;-77
2023/04/28 12:06:41;;;;;;;4.53;2.67;;;;;20.90;100824.00;;;;5049441;28;20188;-77
2023/04/28 12:09:20;;;;;;;5.60;3.10;;;;;20.90;100818.00;;;;5056541;28;20223;-76
2023/04/28 12:11:56;;;;;;;4.07;3.15;;;;;21.00;100826.00;;;;5069444;28;20221;-76
2023/04/28 12:14:24;;;;;;;3.38;3.05;;;;;21.10;100817.00;;;;5069010;28;20644;-77
2023/04/28 12:16:53;;;;;;;2.58;2.20;;;;;21.10;100821.00;;;;5068938;28;20385;-77